Time;durP1;ratioP1;P1;durP2;ratioP2;P2;SDS_P1;SDS_P2;PMS_P1;PMS_P2;Temp;Humidity;BMP_temperature;BMP_pressure;BME280_temperature;BME280_humidity;BME280_pressure;Samples;Min_cycle;Max_cycle;Signal;HPM_P1;HPM_P2
2020/12/07 00:00:23;;;;;;;41.60;23.57;;;;;;;4.23;72.75;99187.58;2046357;84;33866;-64
2020/12/07 00:03:27;;;;;;;46.20;26.12;;;;;;;4.20;72.94;99197.86;2045870;85;28289;-63
2020/12/07 00:06:29;;;;;;;38.17;23.42;;;;;;;4.18;73.07;99177.63;2003929;86;27715;-63
2020/12/07 00:09:31;;;;;;;43.83;24.77;;;;;;;4.16;73.31;99167.55;2064264;85;28608;-63
2020/12/07 00:12:35;;;;;;;41.10;24.92;;;;;;;4.12;73.33;99169.47;2091461;84;30801;-64
2020/12/07 00:15:38;;;;;;;55.88;31.27;;;;;;;4.08;73.65;99166.09;2108083;83;33100;-66
2020/12/07 00:18:40;;;;;;;44.88;25.85;;;;;;;4.07;73.29;99166.13;2056414;84;28953;-64
2020/12/07 00:21:43;;;;;;;40.30;24.50;;;;;;;4.04;73.54;99163.16;2079377;84;27726;-63
2020/12/07 00:24:45;;;;;;;50.15;26.05;;;;;;;4.02;73.60;99166.81;2046533;84;28850;-63
2020/12/07 00:27:47;;;;;;;39.75;23.30;;;;;;;4.01;73.48;99161.11;2078520;84;31573;-62
2020/12/07 00:30:49;;;;;;;37.23;23.83;;;;;;;4.00;73.62;99164.68;2031480;84;33434;-63
2020/12/07 00:33:52;;;;;;;42.03;23.67;;;;;;;3.99;73.80;99165.13;2077972;84;29377;-62
2020/12/07 00:36:55;;;;;;;38.20;21.23;;;;;;;3.98;74.38;99161.22;2032904;84;28037;-62
2020/12/07 00:39:57;;;;;;;36.83;22.22;;;;;;;3.95;73.86;99162.22;2057662;83;28382;-64
2020/12/07 00:42:58;;;;;;;40.45;23.47;;;;;;;3.94;73.86;99156.52;2060192;84;32535;-62
2020/12/07 00:46:01;;;;;;;41.98;23.62;;;;;;;3.90;73.93;99163.71;2069117;82;33082;-62
2020/12/07 00:49:03;;;;;;;37.13;21.27;;;;;;;3.90;73.86;99169.48;2057197;84;30542;-62
2020/12/07 00:52:07;;;;;;;34.53;22.00;;;;;;;3.90;74.08;99173.47;2069565;84;27635;-63
2020/12/07 00:55:09;;;;;;;36.08;21.93;;;;;;;3.88;74.27;99174.86;2036261;84;29411;-63
2020/12/07 00:58:11;;;;;;;39.48;23.05;;;;;;;3.88;73.83;99182.81;2053702;84;31173;-62
2020/12/07 01:01:13;;;;;;;37.20;21.15;;;;;;;3.88;73.92;99174.86;2079181;84;33142;-62
2020/12/07 01:04:15;;;;;;;34.58;21.55;;;;;;;3.88;74.21;99185.46;2054768;84;28951;-63
2020/12/07 01:07:18;;;;;;;40.03;23.25;;;;;;;3.86;73.89;99182.01;2053404;84;27768;-62
2020/12/07 01:10:20;;;;;;;37.40;23.25;;;;;;;3.84;73.75;99177.23;2077997;84;27963;-62
2020/12/07 01:13:23;;;;;;;39.35;22.93;;;;;;;3.82;73.75;99177.75;2057936;84;32350;-63
2020/12/07 01:16:25;;;;;;;37.93;20.68;;;;;;;3.76;73.81;99178.86;2110066;84;34252;-63
2020/12/07 01:19:27;;;;;;;36.85;21.75;;;;;;;3.75;73.84;99182.43;2109833;84;29091;-63
2020/12/07 01:22:29;;;;;;;34.70;21.15;;;;;;;3.75;73.87;99182.88;2080420;84;27769;-62
2020/12/07 01:25:32;;;;;;;37.05;22.48;;;;;;;3.75;73.82;99173.60;2057872;84;28835;-63
2020/12/07 01:28:34;;;;;;;36.77;23.20;;;;;;;3.76;73.93;99173.56;2057855;84;32370;-63
2020/12/07 01:31:37;;;;;;;37.15;21.85;;;;;;;3.76;73.83;99186.80;2057758;84;34539;-63
2020/12/07 01:34:39;;;;;;;33.78;22.10;;;;;;;3.77;73.85;99185.89;2109420;84;29174;-62
2020/12/07 01:37:41;;;;;;;35.03;21.87;;;;;;;3.78;73.73;99188.05;2055598;84;27744;-63
2020/12/07 01:40:43;;;;;;;36.25;22.62;;;;;;;3.76;73.77;99182.83;2110856;82;29367;-62
2020/12/07 01:43:46;;;;;;;40.23;21.80;;;;;;;3.75;73.82;99172.28;2079699;84;32627;-62
2020/12/07 01:46:48;;;;;;;35.25;20.88;;;;;;;3.69;73.94;99172.06;2057304;84;32679;-63
2020/12/07 01:49:51;;;;;;;40.12;22.30;;;;;;;3.62;73.88;99160.86;2108230;84;29391;-62
2020/12/07 01:52:53;;;;;;;36.42;21.10;;;;;;;3.60;74.03;99167.99;2063217;84;28180;-63
2020/12/07 01:55:56;;;;;;;35.13;19.73;;;;;;;3.59;74.10;99159.65;2093711;84;28962;-61
2020/12/07 01:59:00;;;;;;;35.13;20.70;;;;;;;3.57;74.26;99155.34;2071993;84;31174;-62
2020/12/07 02:02:02;;;;;;;31.30;20.25;;;;;;;3.57;74.44;99167.27;2055471;84;32319;-62
2020/12/07 02:05:04;;;;;;;35.05;22.32;;;;;;;3.53;74.50;99161.23;2101346;83;28922;-62
2020/12/07 02:08:18;;;;;;;33.20;20.20;;;;;;;3.49;74.58;99161.79;2078395;84;27744;-62
2020/12/07 02:11:20;;;;;;;32.03;20.08;;;;;;;3.46;74.81;99143.84;2037319;84;28272;-62
2020/12/07 02:14:22;;;;;;;36.95;22.20;;;;;;;3.42;74.74;99136.49;2055343;84;31829;-63
2020/12/07 02:17:24;;;;;;;38.42;21.33;;;;;;;3.39;74.70;99137.94;2074857;84;34535;-64
2020/12/07 02:20:26;;;;;;;35.90;19.80;;;;;;;3.35;74.87;99144.26;2040921;86;29163;-62
2020/12/07 02:23:29;;;;;;;31.02;19.25;;;;;;;3.34;74.67;99145.18;2075745;84;27653;-63
2020/12/07 02:26:31;;;;;;;30.45;19.82;;;;;;;3.36;74.85;99139.84;2094306;83;28909;-62
2020/12/07 02:29:33;;;;;;;32.28;19.52;;;;;;;3.35;74.95;99142.94;2099868;83;31728;-62
2020/12/07 02:32:35;;;;;;;31.68;19.85;;;;;;;3.34;75.04;99145.18;2109398;83;34133;-62
2020/12/07 02:35:37;;;;;;;37.05;22.07;;;;;;;3.32;74.95;99152.31;2094940;83;29512;-64
2020/12/07 02:38:39;;;;;;;38.58;20.95;;;;;;;3.31;75.26;99159.41;2077347;83;27691;-62
2020/12/07 02:41:43;;;;;;;35.70;21.12;;;;;;;3.31;74.88;99151.47;2077846;83;28582;-61
2020/12/07 02:44:45;;;;;;;34.80;21.07;;;;;;;3.31;74.95;99150.62;2110431;83;32537;-62
2020/12/07 02:47:47;;;;;;;34.98;21.62;;;;;;;3.29;75.06;99155.95;2102150;83;33096;-62
2020/12/07 02:50:49;;;;;;;35.00;22.15;;;;;;;3.25;75.14;99161.42;2076735;83;29621;-62
2020/12/07 02:53:51;;;;;;;35.85;19.62;;;;;;;3.21;75.13;99149.22;2045048;83;27739;-61
2020/12/07 02:56:53;;;;;;;27.80;17.25;;;;;;;3.20;75.29;99143.08;2062201;83;28711;-61
2020/12/07 02:59:56;;;;;;;31.35;19.07;;;;;;;3.17;75.65;99140.07;2062520;83;30916;-61
2020/12/07 03:02:58;;;;;;;32.30;20.72;;;;;;;3.14;75.68;99138.89;2114049;83;33094;-61
2020/12/07 03:06:00;;;;;;;33.65;21.50;;;;;;;3.13;75.79;99138.93;2066937;83;29052;-61
2020/12/07 03:09:03;;;;;;;30.50;19.85;;;;;;;3.12;75.41;99133.23;2037721;84;27754;-61
2020/12/07 03:12:06;;;;;;;31.48;19.77;;;;;;;3.11;75.74;99140.33;2034082;84;28619;-61
2020/12/07 03:15:09;;;;;;;35.35;21.50;;;;;;;3.10;75.76;99140.36;2078800;84;31153;-62
2020/12/07 03:18:11;;;;;;;36.00;20.30;;;;;;;3.06;75.87;99163.44;2104232;84;33130;-62
2020/12/07 03:21:13;;;;;;;33.60;20.05;;;;;;;3.05;75.77;99147.16;2080312;84;28819;-64
2020/12/07 03:24:15;;;;;;;30.00;18.20;;;;;;;3.06;75.74;99143.59;2110838;83;27675;-62
2020/12/07 03:27:17;;;;;;;31.85;20.30;;;;;;;3.06;76.05;99145.39;2062471;84;29293;-64
2020/12/07 03:30:20;;;;;;;30.45;19.57;;;;;;;3.04;76.03;99141.02;2040406;85;31610;-63
2020/12/07 03:33:22;;;;;;;31.57;17.85;;;;;;;3.06;75.98;99152.01;2039794;85;33770;-64
2020/12/07 03:36:24;;;;;;;32.23;19.12;;;;;;;3.05;76.04;99141.87;2039143;86;28945;-63
2020/12/07 03:39:27;;;;;;;38.05;21.02;;;;;;;3.04;76.07;99138.81;1997048;86;27925;-64
2020/12/07 03:42:29;;;;;;;35.00;21.73;;;;;;;3.00;76.00;99140.72;2070351;85;29957;-63
2020/12/07 03:45:31;;;;;;;34.33;21.15;;;;;;;2.97;76.18;99146.13;2070216;85;31588;-64
2020/12/07 03:48:33;;;;;;;31.20;19.32;;;;;;;2.96;76.27;99140.91;2039416;85;33711;-63
2020/12/07 03:51:35;;;;;;;30.15;20.55;;;;;;;2.98;76.12;99131.98;2005926;86;29688;-62
2020/12/07 03:54:37;;;;;;;32.23;19.02;;;;;;;3.00;76.35;99141.17;2039946;86;27679;-62
2020/12/07 03:57:40;;;;;;;30.48;19.65;;;;;;;3.01;76.26;99134.95;2017151;86;28372;-62
2020/12/07 04:00:42;;;;;;;28.15;18.17;;;;;;;2.97;76.26;99131.57;2039189;85;30958;-63
2020/12/07 04:03:51;;;;;;;31.57;17.57;;;;;;;2.97;76.77;99131.57;2032906;85;33001;-62
2020/12/07 04:06:54;;;;;;;32.23;19.20;;;;;;;2.94;76.96;99138.30;2070696;85;29150;-62
2020/12/07 04:09:56;;;;;;;26.50;18.00;;;;;;;2.92;76.42;99127.38;2040452;86;27878;-62
2020/12/07 04:12:59;;;;;;;27.48;17.65;;;;;;;2.92;76.85;99123.41;2018359;86;29369;-62
2020/12/07 04:16:04;;;;;;;26.25;16.67;;;;;;;2.93;76.68;99129.11;2027352;85;31156;-63
2020/12/07 04:19:07;;;;;;;29.98;18.15;;;;;;;2.92;76.76;99120.29;2030705;86;33566;-62
2020/12/07 04:22:09;;;;;;;23.35;13.83;;;;;;;2.95;76.47;99113.56;2012176;85;29178;-62
2020/12/07 04:25:11;;;;;;;30.10;17.77;;;;;;;2.98;76.77;99107.32;2021620;85;27635;-63
2020/12/07 04:28:14;;;;;;;29.80;19.62;;;;;;;2.99;77.04;99117.83;2061615;85;29345;-61
2020/12/07 04:31:16;;;;;;;27.58;18.23;;;;;;;2.99;76.64;99121.80;2087540;84;31180;-62
2020/12/07 04:34:18;;;;;;;27.62;18.02;;;;;;;2.99;76.38;99122.24;2088976;84;33175;-62
2020/12/07 04:37:20;;;;;;;27.30;16.40;;;;;;;3.00;76.46;99113.39;2079474;84;29611;-62
2020/12/07 04:40:24;;;;;;;29.20;18.15;;;;;;;2.98;76.67;99108.17;2040480;85;27659;-61
2020/12/07 04:43:29;;;;;;;29.32;20.05;;;;;;;2.97;76.28;99111.73;2035800;85;29685;-61
2020/12/07 04:46:33;;;;;;;27.67;16.55;;;;;;;2.94;76.47;99111.00;2039197;85;31220;-62
2020/12/07 04:49:36;;;;;;;28.70;19.25;;;;;;;2.92;76.64;99108.39;2064610;85;34498;-61
2020/12/07 04:52:39;;;;;;;30.97;18.10;;;;;;;2.88;76.54;99108.97;2067404;84;29149;-61
2020/12/07 04:55:42;;;;;;;21.82;14.23;;;;;;;2.86;76.48;99084.36;2055355;85;27741;-62
2020/12/07 04:58:44;;;;;;;30.97;18.20;;;;;;;2.85;76.81;99068.08;2046506;85;29780;-63
2020/12/07 05:01:46;;;;;;;29.15;17.30;;;;;;;2.83;76.92;99079.66;2065491;85;31132;-62
2020/12/07 05:04:48;;;;;;;27.90;18.75;;;;;;;2.81;76.80;99069.59;2063607;84;32890;-63
2020/12/07 05:07:52;;;;;;;29.35;19.12;;;;;;;2.80;76.80;99074.03;2069253;84;29854;-62
2020/12/07 05:11:03;;;;;;;28.85;16.32;;;;;;;2.79;77.21;99074.06;2063982;85;27694;-63
2020/12/07 05:14:09;;;;;;;25.88;17.07;;;;;;;2.78;77.03;99064.41;2040765;86;28858;-62
2020/12/07 05:17:09;;;;;;;27.27;18.00;;;;;;;2.80;76.83;99071.83;2062564;85;31826;-62
2020/12/07 05:20:11;;;;;;;29.27;18.37;;;;;;;2.83;76.76;99073.04;2066891;84;33587;-62
2020/12/07 05:23:17;;;;;;;29.02;18.05;;;;;;;2.86;76.84;99072.93;2042880;85;29152;-61
2020/12/07 05:26:21;;;;;;;27.30;17.15;;;;;;;2.88;76.66;99075.91;2062077;85;27664;-61
2020/12/07 05:32:39;;;;;;;27.13;16.60;;;;;;;2.98;76.56;99091.45;2214476;77;27654;-61
2020/12/07 05:35:52;;;;;;;25.43;16.42;;;;;;;2.97;76.64;99093.22;2149781;81;27700;-61
2020/12/07 05:38:51;;;;;;;23.80;15.15;;;;;;;3.00;76.67;99094.42;2151662;81;29861;-62
2020/12/07 05:41:54;;;;;;;27.15;16.60;;;;;;;3.05;76.59;99111.44;2171549;81;31556;-62
2020/12/07 05:44:57;;;;;;;27.32;17.10;;;;;;;3.10;76.57;99102.00;2168287;80;33138;-62
2020/12/07 05:48:00;;;;;;;27.07;16.75;;;;;;;3.12;76.72;99115.59;2158775;81;29462;-62
2020/12/07 05:51:06;;;;;;;34.00;16.82;;;;;;;3.16;76.80;99120.30;2149153;81;27683;-62
2020/12/07 05:54:09;;;;;;;22.50;15.63;;;;;;;3.15;76.59;99119.42;2179156;80;29338;-62
2020/12/07 05:57:15;;;;;;;25.88;15.75;;;;;;;3.19;76.48;99125.48;2174262;81;30334;-62
2020/12/07 06:00:22;;;;;;;21.73;15.08;;;;;;;3.22;76.54;99120.52;2178329;81;33132;-62
2020/12/07 06:03:25;;;;;;;23.87;15.78;;;;;;;3.23;76.49;99125.73;2149259;81;28996;-62
2020/12/07 06:06:34;;;;;;;27.15;17.35;;;;;;;3.27;76.38;99111.95;2178636;81;27759;-64
2020/12/07 06:09:38;;;;;;;24.23;13.83;;;;;;;3.29;76.30;99116.25;2125909;80;29600;-62
2020/12/07 06:12:44;;;;;;;25.35;14.98;;;;;;;3.30;76.56;99115.33;2149168;81;31164;-62
2020/12/07 06:15:47;;;;;;;;;;;;;;;3.32;76.30;99112.16;2180937;81;33192;-62
2020/12/07 06:18:55;;;;;;;20.37;13.80;;;;;;;3.36;76.15;99118.19;2121697;81;28675;-62
2020/12/07 06:21:59;;;;;;;26.37;15.65;;;;;;;3.39;76.17;99122.52;2148338;81;27704;-64
2020/12/07 06:25:02;;;;;;;19.20;11.45;;;;;;;3.40;76.17;99129.06;2208494;80;28573;-62
2020/12/07 06:28:05;;;;;;;24.07;15.78;;;;;;;3.42;76.11;99125.91;2159092;80;30878;-62
2020/12/07 06:31:13;;;;;;;22.82;13.90;;;;;;;3.43;75.95;99139.98;2212328;80;33654;-62
2020/12/07 06:34:16;;;;;;;24.47;15.72;;;;;;;3.42;76.11;99150.17;2160462;81;29663;-61
2020/12/07 06:37:18;;;;;;;20.82;12.70;;;;;;;3.43;75.89;99141.31;2185941;80;27662;-63
2020/12/07 06:43:36;;;;;;;24.80;14.17;;;;;;;3.54;75.82;99154.14;2252058;77;27786;-61
2020/12/07 06:47:03;;;;;;;21.30;13.45;;;;;;;3.52;75.81;99155.98;2162052;80;27725;-61
2020/12/07 06:50:15;;;;;;;20.50;14.10;;;;;;;3.55;75.78;99150.56;2188627;80;28632;-62
2020/12/07 06:56:34;;;;;;;22.75;14.87;;;;;;;3.59;75.68;99156.16;2217445;80;33121;-61
2020/12/07 06:59:36;;;;;;;24.52;15.95;;;;;;;3.61;75.63;99164.42;2162510;80;29398;-63
2020/12/07 07:02:42;;;;;;;26.20;14.90;;;;;;;3.62;75.61;99163.50;2186856;80;27695;-62
2020/12/07 07:05:44;;;;;;;20.77;11.93;;;;;;;3.64;75.62;99153.72;2160664;80;28802;-62
2020/12/07 07:08:49;;;;;;;21.80;12.88;;;;;;;3.69;75.62;99164.59;2149680;81;31160;-62
2020/12/07 07:12:01;;;;;;;21.97;13.50;;;;;;;3.79;75.59;99156.22;2248260;78;27683;-61
2020/12/07 07:15:06;;;;;;;19.90;13.72;;;;;;;3.82;75.49;99173.77;2228723;79;27655;-61
2020/12/07 07:18:09;;;;;;;20.25;12.88;;;;;;;3.89;75.44;99169.09;2168862;79;28605;-61
2020/12/07 07:21:12;;;;;;;21.07;13.90;;;;;;;3.97;75.39;99178.92;2223943;79;32538;-61
2020/12/07 07:24:16;;;;;;;21.33;13.90;;;;;;;4.03;75.26;99182.63;2196071;79;33616;-60
2020/12/07 07:30:40;;;;;;;16.07;10.05;;;;;;;4.16;75.03;99186.09;2170317;81;27721;-61
2020/12/07 07:33:43;;;;;;;21.90;13.05;;;;;;;4.22;74.82;99186.70;2130727;82;29803;-63
2020/12/07 07:36:47;;;;;;;18.50;12.85;;;;;;;4.26;74.70;99194.09;2125597;81;30909;-64
2020/12/07 07:40:00;;;;;;;20.68;12.75;;;;;;;4.32;74.73;99195.61;2148028;81;33802;-62
2020/12/07 07:43:04;;;;;;;18.77;11.93;;;;;;;4.39;74.64;99195.29;2174548;81;29063;-62
2020/12/07 07:46:07;;;;;;;20.57;14.13;;;;;;;4.45;74.50;99183.55;2174864;81;27767;-62
2020/12/07 07:49:29;;;;;;;20.12;14.00;;;;;;;4.51;74.33;99199.22;2174573;81;29819;-62
2020/12/07 07:52:52;;;;;;;21.52;13.95;;;;;;;4.53;74.21;99187.20;2173840;81;32072;-62
2020/12/07 08:18:19;;;;;;;21.00;12.78;;;;;;;4.56;73.77;99205.65;2188588;80;27817;-63
2020/12/07 08:21:33;;;;;;;20.60;13.88;;;;;;;4.56;73.80;99202.52;2151166;80;28837;-62
2020/12/07 08:24:54;;;;;;;20.85;12.68;;;;;;;4.59;73.87;99219.23;2160112;80;32623;-64
2020/12/07 08:27:57;;;;;;;33.00;19.37;;;;;;;4.59;73.79;99216.13;2181872;80;32964;-63
2020/12/07 08:31:19;;;;;;;24.95;14.90;;;;;;;4.61;73.79;99223.56;2157026;80;28858;-63
2020/12/07 08:34:27;;;;;;;27.90;15.48;;;;;;;4.61;73.76;99208.97;2204599;80;27642;-62
2020/12/07 08:37:35;;;;;;;23.25;13.15;;;;;;;4.64;73.76;99210.14;2157496;80;28613;-62
2020/12/07 08:40:38;;;;;;;22.22;13.75;;;;;;;4.69;73.68;99220.10;2180943;80;31148;-64
2020/12/07 08:43:44;;;;;;;45.48;22.80;;;;;;;4.75;73.76;99213.67;2156300;80;32867;-63
2020/12/07 08:46:47;;;;;;;37.25;20.48;;;;;;;4.84;73.63;99211.08;2179492;80;28633;-67
2020/12/07 08:49:49;;;;;;;34.98;19.67;;;;;;;4.87;73.44;99213.60;2176292;80;27597;-64
2020/12/07 08:52:52;;;;;;;31.35;18.17;;;;;;;4.92;73.45;99222.23;2147609;82;29581;-62
2020/12/07 08:55:58;;;;;;;31.57;16.05;;;;;;;4.99;73.32;99214.86;2151253;80;32299;-64
2020/12/07 08:59:01;;;;;;;35.43;19.15;;;;;;;5.05;73.36;99221.20;2176199;80;33198;-63
2020/12/07 09:02:04;;;;;;;30.10;17.67;;;;;;;5.12;73.21;99220.50;2156648;80;28936;-64
2020/12/07 09:05:06;;;;;;;33.25;18.37;;;;;;;5.19;73.19;99221.92;2108779;80;28183;-64
2020/12/07 09:08:09;;;;;;;42.45;22.50;;;;;;;5.28;73.03;99235.25;2156406;80;28189;-64
2020/12/07 09:11:14;;;;;;;34.38;19.15;;;;;;;5.37;72.99;99231.32;2147997;80;31151;-64
2020/12/07 09:14:17;;;;;;;25.90;15.40;;;;;;;5.48;72.92;99232.56;2174549;80;33109;-63
2020/12/07 09:17:20;;;;;;;21.52;12.37;;;;;;;5.57;72.64;99225.96;2208049;80;28915;-64
2020/12/07 09:20:23;;;;;;;24.00;14.78;;;;;;;5.65;72.08;99234.02;2155575;80;27713;-65
2020/12/07 09:23:26;;;;;;;24.30;15.00;;;;;;;5.74;72.19;99228.30;2158160;80;28625;-65
2020/12/07 09:26:29;;;;;;;22.67;14.38;;;;;;;5.81;72.21;99219.56;2154918;80;31126;-64
2020/12/07 09:29:32;;;;;;;22.37;13.60;;;;;;;5.86;72.06;99229.52;2208210;80;33843;-64
2020/12/07 09:32:34;;;;;;;21.48;14.47;;;;;;;5.92;71.78;99221.23;2155172;80;28845;-64
2020/12/07 09:35:40;;;;;;;20.40;13.83;;;;;;;5.96;71.80;99229.46;2150659;80;27807;-64
2020/12/07 09:38:43;;;;;;;23.95;13.08;;;;;;;6.04;71.79;99217.16;2180107;80;29252;-66
2020/12/07 09:41:46;;;;;;;19.32;12.75;;;;;;;6.13;71.39;99222.02;2134653;81;31229;-64
2020/12/07 09:44:49;;;;;;;19.12;11.78;;;;;;;6.21;71.16;99219.86;2180515;80;33129;-66
2020/12/07 09:47:51;;;;;;;22.10;14.75;;;;;;;6.29;70.93;99210.66;2134352;80;28919;-66
2020/12/07 09:50:54;;;;;;;27.62;14.05;;;;;;;6.36;70.97;99208.06;2110779;80;27701;-67
2020/12/07 09:53:56;;;;;;;21.87;13.40;;;;;;;6.44;71.04;99210.34;2158182;80;28824;-66
2020/12/07 09:56:58;;;;;;;20.52;12.98;;;;;;;6.46;70.88;99207.14;2084941;82;31004;-64
2020/12/07 10:00:02;;;;;;;26.55;11.03;;;;;;;6.52;70.95;99213.00;2154934;80;32942;-65
2020/12/07 10:03:26;;;;;;;22.42;13.25;;;;;;;6.53;70.34;99212.06;2121703;82;29306;-65
2020/12/07 10:06:30;;;;;;;20.25;11.93;;;;;;;6.53;70.62;99208.08;2075309;84;27823;-64
2020/12/07 10:09:32;;;;;;;20.10;12.55;;;;;;;6.51;70.24;99199.30;2075411;84;29033;-64
2020/12/07 10:12:35;;;;;;;23.10;12.60;;;;;;;6.52;70.47;99199.70;2063793;84;31153;-65
2020/12/07 10:15:38;;;;;;;21.40;12.13;;;;;;;6.56;70.52;99207.05;2062803;84;32975;-64
2020/12/07 10:18:41;;;;;;;18.98;10.63;;;;;;;6.59;70.28;99206.90;2075002;84;28866;-66
2020/12/07 10:21:43;;;;;;;19.98;11.48;;;;;;;6.61;70.01;99206.35;2075603;84;27749;-63
2020/12/07 10:24:45;;;;;;;19.42;12.88;;;;;;;6.63;70.13;99201.81;2076318;83;29981;-63
2020/12/07 10:27:48;;;;;;;21.75;12.93;;;;;;;6.64;69.72;99192.90;2116054;83;31203;-63
2020/12/07 10:30:52;;;;;;;24.02;13.68;;;;;;;6.66;69.57;99184.82;2093975;83;34061;-63
2020/12/07 10:33:55;;;;;;;21.23;12.18;;;;;;;6.69;69.56;99173.58;2090595;83;28872;-64
2020/12/07 10:36:58;;;;;;;19.90;12.28;;;;;;;6.71;69.74;99176.59;2135515;81;27729;-64
2020/12/07 10:40:01;;;;;;;20.37;12.37;;;;;;;6.74;69.18;99191.08;2079122;84;28026;-63
2020/12/07 10:43:04;;;;;;;20.57;13.25;;;;;;;6.76;69.76;99187.42;2032538;85;31186;-63
2020/12/07 10:46:07;;;;;;;24.05;13.62;;;;;;;6.81;70.01;99197.34;2084150;84;33779;-63
2020/12/07 10:49:10;;;;;;;23.55;14.98;;;;;;;6.91;69.87;99203.53;2118345;83;28929;-64
2020/12/07 10:52:13;;;;;;;26.25;12.88;;;;;;;6.99;69.68;99217.28;2056143;84;27786;-64
2020/12/07 10:55:16;;;;;;;24.77;13.72;;;;;;;7.08;69.40;99217.27;2072000;82;28834;-63
2020/12/07 10:58:19;;;;;;;29.07;15.88;;;;;;;7.15;69.49;99219.53;2057195;85;30924;-63
2020/12/07 11:01:22;;;;;;;18.15;10.75;;;;;;;7.24;69.49;99212.85;2121983;83;33122;-63
2020/12/07 11:04:24;;;;;;;18.00;11.55;;;;;;;7.31;68.71;99217.38;2034967;84;28326;-63
2020/12/07 11:07:28;;;;;;;20.32;11.60;;;;;;;7.36;68.83;99206.01;2031663;84;28145;-63
2020/12/07 11:10:30;;;;;;;21.73;13.22;;;;;;;7.42;68.73;99215.47;2076939;84;29717;-63
2020/12/07 11:13:35;;;;;;;20.75;11.90;;;;;;;7.45;68.75;99211.31;2053381;84;31148;-63
2020/12/07 11:16:37;;;;;;;18.48;11.75;;;;;;;7.47;68.58;99210.76;2053966;84;33976;-63
2020/12/07 11:22:55;;;;;;;30.10;14.23;;;;;;;7.55;67.76;99200.52;2251137;77;28143;-65
2020/12/07 11:25:58;;;;;;;21.48;13.35;;;;;;;7.54;68.21;99201.47;2148097;81;27685;-63
2020/12/07 11:29:01;;;;;;;19.75;11.38;;;;;;;7.57;68.31;99200.46;2125534;81;29260;-63
2020/12/07 11:32:03;;;;;;;20.37;13.13;;;;;;;7.60;67.91;99187.81;2123143;81;31158;-64
2020/12/07 11:35:06;;;;;;;20.77;12.78;;;;;;;7.63;68.29;99180.11;2114451;81;33853;-65
2020/12/07 11:38:18;;;;;;;22.42;12.73;;;;;;;7.65;67.95;99166.23;2125272;81;29688;-64
2020/12/07 11:44:22;;;;;;;20.02;12.43;;;;;;;7.66;67.77;99167.11;2147062;81;28915;-62
2020/12/07 11:47:24;;;;;;;21.45;11.53;;;;;;;7.66;67.62;99165.28;2124219;81;31147;-65
2020/12/07 11:50:28;;;;;;;22.22;11.80;;;;;;;7.69;67.89;99165.61;2137117;80;33333;-63
2020/12/07 11:53:30;;;;;;;20.37;12.80;;;;;;;7.72;67.88;99175.61;2139261;81;30061;-64
2020/12/07 11:56:36;;;;;;;14.13;9.43;;;;;;;7.79;67.66;99176.58;2143870;81;28104;-65
2020/12/07 11:59:38;;;;;;;22.48;13.13;;;;;;;7.86;67.39;99180.64;2119248;81;28830;-66
2020/12/07 12:02:41;;;;;;;20.75;11.85;;;;;;;7.91;67.49;99179.91;2124932;81;30904;-68
2020/12/07 12:05:44;;;;;;;24.75;12.85;;;;;;;7.96;67.07;99194.31;2125108;81;33010;-65
2020/12/07 12:08:46;;;;;;;23.87;13.68;;;;;;;8.02;67.58;99188.16;2124043;81;29929;-65
2020/12/07 12:11:49;;;;;;;23.52;12.93;;;;;;;8.10;67.56;99202.38;2174314;81;27972;-64
2020/12/07 12:14:52;;;;;;;23.45;13.60;;;;;;;8.17;67.52;99207.77;2160810;80;28845;-64
2020/12/07 12:17:54;;;;;;;23.02;14.47;;;;;;;8.23;67.23;99193.20;2183352;80;30756;-64
2020/12/07 12:20:57;;;;;;;21.37;13.08;;;;;;;8.27;67.15;99192.09;2103353;81;33927;-62
2020/12/07 12:24:02;;;;;;;26.87;13.88;;;;;;;8.31;66.96;99181.59;2123144;81;28385;-65
2020/12/07 12:27:05;;;;;;;31.55;14.98;;;;;;;8.32;66.78;99186.48;2125371;81;27737;-64
2020/12/07 12:30:08;;;;;;;27.98;13.38;;;;;;;8.31;66.53;99196.27;2134809;81;28678;-64
2020/12/07 12:33:10;;;;;;;30.00;14.20;;;;;;;8.32;66.77;99198.48;2093206;81;32176;-64
2020/12/07 12:36:19;;;;;;;25.00;13.53;;;;;;;8.36;66.67;99206.22;2068324;81;34013;-64
2020/12/07 12:39:21;;;;;;;26.55;14.45;;;;;;;8.38;66.39;99202.11;2133830;81;28687;-64
2020/12/07 12:42:25;;;;;;;29.82;15.60;;;;;;;8.40;66.46;99199.38;2124213;81;27803;-65
2020/12/07 12:45:27;;;;;;;25.75;15.60;;;;;;;8.42;66.53;99213.00;2124395;81;28367;-65
2020/12/07 12:48:30;;;;;;;29.55;16.00;;;;;;;8.46;66.42;99209.20;2147938;81;30334;-64
2020/12/07 12:51:34;;;;;;;32.25;16.00;;;;;;;8.46;66.25;99211.88;2128826;81;32909;-65
2020/12/07 12:54:37;;;;;;;26.17;14.73;;;;;;;8.48;66.21;99219.81;2145544;81;28299;-64
2020/12/07 12:57:39;;;;;;;31.68;16.55;;;;;;;8.47;66.03;99218.94;2070126;81;27698;-64
2020/12/07 13:00:42;;;;;;;27.62;15.35;;;;;;;8.48;65.97;99221.15;2144568;81;28874;-66
2020/12/07 13:03:45;;;;;;;29.52;15.85;;;;;;;8.46;66.14;99223.89;2099072;81;32053;-65
2020/12/07 13:06:48;;;;;;;31.65;16.57;;;;;;;8.48;66.12;99231.83;2127005;80;33579;-65
2020/12/07 13:09:51;;;;;;;28.83;16.20;;;;;;;8.44;65.86;99233.79;2146096;81;28831;-63
2020/12/07 13:12:53;;;;;;;29.67;16.95;;;;;;;8.42;65.98;99238.84;2071942;84;27652;-63
2020/12/07 13:16:02;;;;;;;30.08;16.35;;;;;;;8.41;65.97;99237.13;2048329;84;28617;-67
2020/12/07 13:19:03;;;;;;;30.55;18.17;;;;;;;8.40;65.70;99239.40;2102054;83;32137;-63
2020/12/07 13:25:44;;;;;;;34.63;18.23;;;;;;;8.35;65.85;99251.19;2034635;85;28670;-66
2020/12/07 13:28:44;;;;;;;34.75;20.12;;;;;;;8.37;65.79;99253.77;2081007;85;27600;-66
2020/12/07 13:31:46;;;;;;;36.90;20.30;;;;;;;8.36;65.87;99259.59;2022681;85;28612;-67
2020/12/07 13:34:49;;;;;;;36.48;20.57;;;;;;;8.36;65.95;99264.05;2044514;85;31162;-64
2020/12/07 13:37:51;;;;;;;30.80;17.85;;;;;;;8.36;65.97;99274.72;2065589;83;33149;-64
2020/12/07 13:40:53;;;;;;;36.38;20.05;;;;;;;8.38;65.77;99269.31;2087242;83;28716;-65
2020/12/07 13:43:56;;;;;;;36.65;19.82;;;;;;;8.35;65.73;99269.87;2174229;81;28038;-66
2020/12/07 13:46:59;;;;;;;42.08;20.68;;;;;;;8.32;65.65;99271.38;2043828;83;28647;-65
2020/12/07 13:50:01;;;;;;;37.80;20.50;;;;;;;8.29;65.68;99282.70;2136118;81;31231;-64
2020/12/07 13:53:03;;;;;;;39.27;20.62;;;;;;;8.27;65.75;99285.48;2116132;83;33838;-66
2020/12/07 13:56:06;;;;;;;38.28;21.15;;;;;;;8.26;65.85;99292.22;2092223;83;28698;-67
2020/12/07 13:59:12;;;;;;;35.92;20.40;;;;;;;8.24;65.83;99292.77;2090978;83;27835;-66
2020/12/07 14:02:14;;;;;;;;;;;;;;;8.21;65.71;99292.48;2070931;83;27704;-63
2020/12/07 14:05:17;;;;;;;38.78;21.48;;;;;;;8.17;65.69;99293.14;2055967;83;31151;-67
2020/12/07 14:08:20;;;;;;;41.63;23.18;;;;;;;8.15;65.63;99300.81;2092711;83;33143;-64
2020/12/07 14:11:23;;;;;;;40.17;22.32;;;;;;;8.14;65.83;99306.64;2046955;83;28692;-67
2020/12/07 14:14:26;;;;;;;43.55;23.67;;;;;;;8.14;65.65;99305.77;2042307;83;27706;-64
2020/12/07 14:17:37;;;;;;;44.35;23.67;;;;;;;8.12;65.51;99312.98;2081775;83;27873;-66
2020/12/07 14:21:04;;;;;;;42.17;23.70;;;;;;;8.10;65.68;99312.23;2056234;83;31953;-67
2020/12/07 14:24:01;;;;;;;43.13;24.55;;;;;;;8.10;65.70;99306.91;2057873;84;33132;-67
2020/12/07 14:40:06;;;;;;;55.52;23.70;;;;;;;7.99;65.66;99312.83;2085977;84;33660;-68
2020/12/07 14:42:57;;;;;;;45.80;23.98;;;;;;;7.94;65.78;99314.42;2080688;84;29246;-66
2020/12/07 14:46:09;;;;;;;46.65;24.32;;;;;;;7.93;65.92;99316.70;2059709;84;27836;-67
2020/12/07 14:49:08;;;;;;;47.90;26.50;;;;;;;7.89;65.89;99322.64;2081041;84;29631;-65
2020/12/07 14:52:12;;;;;;;55.58;26.12;;;;;;;7.84;65.83;99323.84;2079107;84;30469;-65
2020/12/07 15:02:05;;;;;;;37.08;21.10;;;;;;;7.75;66.07;99332.74;2131695;81;27561;-65
2020/12/07 15:14:56;;;;;;;54.60;34.23;;;;;;;7.77;66.20;99331.80;2228056;78;32380;-63
2020/12/07 15:17:59;;;;;;;48.85;27.87;;;;;;;7.81;66.06;99344.00;2149187;80;27674;-66
2020/12/07 15:21:05;;;;;;;54.58;32.63;;;;;;;7.83;66.11;99345.66;2189058;80;28823;-66
2020/12/07 15:24:07;;;;;;;61.02;37.48;;;;;;;7.85;66.14;99351.78;2163434;80;31130;-68
2020/12/07 15:27:10;;;;;;;57.33;34.48;;;;;;;7.82;66.10;99354.60;2133341;81;33144;-71
2020/12/07 15:30:13;;;;;;;54.85;32.75;;;;;;;7.79;66.06;99361.88;2169283;79;28621;-63